createdAt,value
2023-03-05T00:03:21.863Z,28.40
2023-03-05T00:05:59.817Z,29.77
2023-03-05T00:08:33.625Z,30.68
2023-03-05T00:11:10.839Z,29.77
2023-03-05T00:13:44.458Z,28.52
2023-03-05T00:16:18.234Z,29.30
2023-03-05T00:21:33.801Z,27.10
2023-03-05T00:24:15.052Z,26.12
2023-03-05T00:26:49.966Z,27.70
2023-03-05T00:29:22.725Z,29.18
2023-03-05T00:31:56.151Z,29.33
2023-03-05T00:34:29.955Z,26.68
2023-03-05T00:39:35.127Z,24.77
2023-03-05T00:42:09.015Z,27.15
2023-03-05T00:44:43.266Z,26.90
2023-03-05T00:47:17.892Z,26.50
2023-03-05T00:49:51.608Z,26.40
2023-03-05T00:52:24.418Z,26.82
2023-03-05T00:54:58.351Z,25.23
2023-03-05T00:57:31.109Z,25.77
2023-03-05T01:00:04.541Z,27.25
2023-03-05T01:02:37.714Z,27.82
2023-03-05T01:05:14.738Z,27.03
2023-03-05T01:07:47.784Z,28.40
2023-03-05T01:10:20.992Z,25.27
2023-03-05T01:12:55.939Z,29.02
2023-03-05T01:15:29.943Z,26.50
2023-03-05T01:18:02.823Z,27.45
2023-03-05T01:20:36.124Z,28.12
2023-03-05T01:23:09.781Z,28.60
2023-03-05T01:25:43.362Z,29.95
2023-03-05T01:28:16.637Z,29.30
2023-03-05T01:30:51.591Z,30.52
2023-03-05T01:33:24.972Z,30.23
2023-03-05T01:35:57.672Z,29.63
2023-03-05T01:38:31.026Z,31.12
2023-03-05T01:41:04.104Z,30.60
2023-03-05T01:43:36.970Z,29.48
2023-03-05T01:46:30.555Z,31.73
2023-03-05T01:49:13.850Z,29.63
2023-03-05T01:52:04.346Z,32.93
2023-03-05T01:55:00.385Z,30.75
2023-03-05T01:57:40.034Z,34.50
2023-03-05T02:00:17.634Z,33.13
2023-03-05T02:02:52.391Z,31.90
2023-03-05T02:05:35.441Z,32.93
2023-03-05T02:08:12.455Z,31.70
2023-03-05T02:10:49.581Z,34.35
2023-03-05T02:13:31.779Z,33.10
2023-03-05T02:16:05.132Z,32.03
2023-03-05T02:18:38.497Z,30.30
2023-03-05T02:21:14.979Z,33.75
2023-03-05T02:23:47.767Z,31.07
2023-03-05T02:26:20.690Z,33.13
2023-03-05T02:28:57.139Z,32.23
2023-03-05T02:31:31.452Z,33.00
2023-03-05T02:34:06.654Z,29.87
2023-03-05T02:36:41.435Z,31.02
2023-03-05T02:39:14.919Z,33.25
2023-03-05T02:41:47.856Z,30.88
2023-03-05T02:44:20.783Z,34.03
2023-03-05T02:46:54.280Z,32.00
2023-03-05T02:49:27.171Z,30.12
2023-03-05T02:52:00.139Z,32.48
2023-03-05T02:54:33.328Z,32.40
2023-03-05T02:57:07.764Z,33.28
2023-03-05T03:02:14.025Z,33.35
2023-03-05T03:04:48.535Z,32.30
2023-03-05T03:07:21.560Z,33.63
2023-03-05T03:09:54.792Z,32.93
2023-03-05T03:12:28.745Z,35.65
2023-03-05T03:15:03.191Z,34.00
2023-03-05T03:17:38.883Z,35.25
2023-03-05T03:20:15.431Z,32.38
2023-03-05T03:22:49.057Z,32.73
2023-03-05T03:25:23.866Z,33.53
2023-03-05T03:27:58.238Z,33.70
2023-03-05T03:30:30.888Z,34.38
2023-03-05T03:33:03.776Z,34.53
2023-03-05T03:35:38.509Z,33.18
2023-03-05T03:38:12.299Z,33.15
2023-03-05T03:43:17.903Z,30.48
2023-03-05T03:48:24.484Z,34.20
2023-03-05T03:50:57.353Z,33.63
2023-03-05T03:53:30.443Z,34.15
2023-03-05T03:56:03.795Z,36.10
2023-03-05T04:01:09.331Z,32.08
2023-03-05T04:03:42.076Z,35.23
2023-03-05T04:06:15.784Z,37.15
2023-03-05T04:08:49.037Z,37.38
2023-03-05T04:11:23.598Z,38.30
2023-03-05T04:13:56.349Z,36.30
2023-03-05T04:16:29.788Z,38.80
2023-03-05T04:19:03.290Z,38.15
2023-03-05T04:21:36.022Z,37.08
2023-03-05T04:24:10.409Z,35.70
2023-03-05T04:26:43.155Z,36.48
2023-03-05T04:29:15.948Z,34.83
2023-03-05T04:31:49.654Z,36.20
2023-03-05T04:34:22.560Z,38.05
2023-03-05T04:36:55.718Z,36.08
2023-03-05T04:39:28.873Z,40.40
2023-03-05T04:42:01.629Z,36.73
2023-03-05T04:44:35.161Z,35.68
2023-03-05T04:47:08.297Z,36.40
2023-03-05T04:49:41.361Z,36.20
2023-03-05T04:52:15.650Z,35.58
2023-03-05T04:54:48.420Z,36.65
2023-03-05T04:57:23.153Z,38.78
2023-03-05T04:59:55.794Z,36.15
2023-03-05T05:02:28.981Z,34.57
2023-03-05T05:05:01.875Z,36.33
2023-03-05T05:07:35.148Z,33.63
2023-03-05T05:10:09.431Z,38.13
2023-03-05T05:12:42.316Z,36.75
2023-03-05T05:15:15.592Z,37.65
2023-03-05T05:17:49.782Z,35.85
2023-03-05T05:20:23.118Z,38.33
2023-03-05T05:22:56.184Z,38.80
2023-03-05T05:25:29.360Z,39.20
2023-03-05T05:28:02.016Z,35.80
2023-03-05T05:30:34.979Z,34.63
2023-03-05T05:33:08.554Z,31.95
2023-03-05T05:35:42.210Z,32.38
2023-03-05T05:38:15.772Z,29.65
2023-03-05T05:40:49.303Z,28.27
2023-03-05T05:43:22.047Z,25.20
2023-03-05T05:45:55.665Z,23.77
2023-03-05T05:48:30.741Z,22.58
2023-03-05T05:51:13.414Z,26.20
2023-03-05T05:53:47.975Z,29.77
2023-03-05T05:56:22.081Z,26.52
2023-03-05T05:58:55.618Z,24.20
2023-03-05T06:01:33.680Z,24.15
2023-03-05T06:04:06.594Z,23.18
2023-03-05T06:06:39.980Z,23.73
2023-03-05T06:09:13.061Z,23.90
2023-03-05T06:11:45.987Z,21.40
2023-03-05T06:14:18.854Z,22.05
2023-03-05T06:19:24.804Z,18.85
2023-03-05T06:21:57.905Z,19.37
2023-03-05T06:24:30.819Z,18.83
2023-03-05T06:27:04.635Z,19.65
2023-03-05T06:29:38.282Z,20.12
2023-03-05T06:32:11.691Z,19.73
2023-03-05T06:34:44.561Z,20.05
2023-03-05T06:37:17.464Z,18.98
2023-03-05T06:39:50.758Z,20.23
2023-03-05T06:42:23.689Z,21.97
2023-03-05T06:44:56.596Z,19.30
2023-03-05T06:47:29.910Z,19.43
2023-03-05T06:50:03.982Z,18.20
2023-03-05T06:52:39.269Z,17.85
2023-03-05T06:55:12.865Z,18.40
2023-03-05T06:57:45.709Z,16.85
2023-03-05T07:00:18.796Z,17.85
2023-03-05T07:02:51.787Z,15.37
2023-03-05T07:05:25.138Z,17.37
2023-03-05T07:07:58.571Z,14.45
2023-03-05T07:10:31.962Z,14.20
2023-03-05T07:13:05.022Z,14.83
2023-03-05T07:15:41.215Z,15.40
2023-03-05T07:18:14.155Z,13.43
2023-03-05T07:20:46.879Z,14.95
2023-03-05T07:23:20.478Z,15.25
2023-03-05T07:25:53.953Z,15.28
2023-03-05T07:28:27.418Z,15.13
2023-03-05T07:31:03.083Z,16.13
2023-03-05T07:33:37.502Z,15.03
2023-03-05T07:36:12.335Z,13.48
2023-03-05T07:38:45.472Z,15.03
2023-03-05T07:41:22.235Z,12.88
2023-03-05T07:43:56.735Z,12.18
2023-03-05T07:46:33.051Z,12.85
2023-03-05T07:49:06.859Z,12.33
2023-03-05T07:51:42.037Z,12.25
2023-03-05T07:54:14.664Z,11.08
2023-03-05T07:56:47.989Z,9.55
2023-03-05T07:59:20.796Z,9.65
2023-03-05T08:01:54.120Z,8.30
2023-03-05T08:04:27.355Z,10.30
2023-03-05T08:07:01.466Z,8.40
2023-03-05T08:09:36.239Z,6.95
2023-03-05T08:12:10.759Z,7.53
2023-03-05T08:14:44.329Z,7.97
2023-03-05T08:17:16.993Z,8.03
2023-03-05T08:19:50.402Z,6.60
2023-03-05T08:22:23.775Z,7.35
2023-03-05T08:24:57.356Z,8.13
2023-03-05T08:27:30.198Z,7.35
2023-03-05T08:30:04.235Z,9.08
2023-03-05T08:32:37.436Z,7.10
2023-03-05T08:35:10.653Z,8.40
2023-03-05T08:37:43.983Z,9.70
2023-03-05T08:40:19.088Z,7.92
2023-03-05T08:42:52.360Z,8.45
2023-03-05T08:45:25.782Z,8.25
2023-03-05T08:47:59.529Z,7.70
2023-03-05T08:50:32.900Z,8.45
2023-03-05T08:53:05.739Z,8.45
2023-03-05T08:55:38.763Z,8.75
2023-03-05T08:58:11.877Z,8.50
2023-03-05T09:00:44.554Z,7.55
2023-03-05T09:03:17.396Z,8.18
2023-03-05T09:05:51.638Z,8.63
2023-03-05T09:08:25.008Z,8.28
2023-03-05T09:10:58.850Z,8.18
2023-03-05T09:13:31.687Z,7.30
2023-03-05T09:16:09.893Z,6.55
2023-03-05T09:18:42.935Z,6.03
2023-03-05T09:21:18.662Z,6.97
2023-03-05T09:23:52.069Z,6.78
2023-03-05T09:26:25.517Z,6.55
2023-03-05T09:28:58.817Z,6.75
2023-03-05T09:31:32.116Z,6.22
2023-03-05T09:34:05.677Z,6.87
2023-03-05T09:36:39.563Z,6.58
2023-03-05T09:39:12.402Z,7.22
2023-03-05T09:45:27.979Z,6.83
2023-03-05T09:48:27.482Z,6.60
2023-03-05T09:51:05.760Z,6.65
2023-03-05T09:53:58.085Z,5.80
2023-03-05T09:56:38.120Z,6.53
2023-03-05T09:59:39.844Z,6.42
2023-03-05T10:02:29.485Z,5.92
2023-03-05T10:05:26.472Z,7.17
2023-03-05T10:08:06.052Z,7.45
2023-03-05T10:10:43.340Z,7.08
2023-03-05T10:13:30.383Z,6.60
2023-03-05T10:16:31.911Z,6.95
2023-03-05T10:19:27.218Z,5.00
2023-03-05T10:22:22.591Z,6.17
2023-03-05T10:25:27.636Z,6.20
2023-03-05T10:28:07.893Z,5.55
2023-03-05T10:31:08.192Z,6.03
2023-03-05T10:34:09.292Z,5.40
2023-03-05T10:37:01.893Z,6.37
2023-03-05T10:40:11.649Z,6.45
2023-03-05T10:43:23.341Z,8.25
2023-03-05T10:45:57.044Z,7.83
2023-03-05T10:48:52.566Z,6.90
2023-03-05T10:51:50.905Z,7.30
2023-03-05T10:54:39.251Z,7.42
2023-03-05T10:57:24.264Z,6.90
2023-03-05T11:00:10.855Z,6.70
2023-03-05T11:03:08.238Z,6.75
2023-03-05T11:05:46.034Z,7.12
2023-03-05T11:08:32.940Z,6.25
2023-03-05T11:11:19.023Z,6.33
2023-03-05T11:14:04.194Z,6.78
2023-03-05T11:16:51.089Z,7.33
2023-03-05T11:19:32.244Z,7.97
2023-03-05T11:22:21.426Z,7.08
2023-03-05T11:25:19.366Z,7.60
2023-03-05T11:27:56.447Z,7.90
2023-03-05T11:30:34.113Z,7.20
2023-03-05T11:33:22.911Z,6.72
2023-03-05T11:36:27.423Z,6.95
2023-03-05T11:39:18.592Z,6.72
2023-03-05T11:42:00.937Z,6.25
2023-03-05T11:44:49.730Z,5.45
2023-03-05T11:47:55.147Z,6.45
2023-03-05T11:50:31.510Z,5.67
2023-03-05T11:53:29.076Z,6.53
2023-03-05T11:56:18.072Z,6.08
2023-03-05T11:59:10.607Z,6.20
2023-03-05T12:01:47.833Z,6.12
2023-03-05T12:04:21.891Z,5.85
2023-03-05T12:09:51.095Z,6.67
2023-03-05T12:12:58.761Z,6.17
2023-03-05T12:16:02.773Z,7.20
2023-03-05T12:18:47.302Z,7.97
2023-03-05T12:21:37.688Z,7.28
2023-03-05T12:24:33.217Z,7.03
2023-03-05T12:27:09.937Z,7.22
2023-03-05T12:29:54.670Z,7.55
2023-03-05T12:32:32.411Z,7.03
2023-03-05T12:35:35.330Z,8.08
2023-03-05T12:38:32.344Z,7.30
2023-03-05T12:41:34.016Z,7.28
2023-03-05T12:44:13.996Z,8.05
2023-03-05T12:46:50.736Z,6.80
2023-03-05T12:49:28.655Z,7.35
2023-03-05T12:52:01.243Z,8.30
2023-03-05T12:54:42.295Z,8.38
2023-03-05T12:57:24.294Z,8.33
2023-03-05T13:00:05.690Z,8.88
2023-03-05T13:02:45.560Z,8.40
2023-03-05T13:05:29.533Z,9.23
2023-03-05T13:08:16.378Z,10.47
2023-03-05T13:11:02.329Z,9.23
2023-03-05T13:13:41.155Z,8.98
2023-03-05T13:16:29.522Z,9.23
2023-03-05T13:19:04.425Z,10.03
2023-03-05T13:21:38.716Z,8.88
2023-03-05T13:24:20.103Z,9.40
2023-03-05T13:26:52.889Z,9.90
2023-03-05T13:29:29.867Z,10.65
2023-03-05T13:32:08.008Z,9.63
2023-03-05T13:34:47.625Z,9.75
2023-03-05T13:37:22.684Z,9.85
2023-03-05T13:40:21.868Z,9.88
2023-03-05T13:42:57.069Z,10.43
2023-03-05T13:45:32.483Z,7.37
2023-03-05T13:48:07.616Z,8.03
2023-03-05T13:50:42.223Z,8.28
2023-03-05T13:53:31.102Z,8.63
2023-03-05T13:56:09.126Z,9.13
2023-03-05T13:58:55.157Z,8.95
2023-03-05T14:01:44.140Z,11.22
2023-03-05T14:04:23.930Z,8.88
2023-03-05T14:07:06.412Z,8.53
2023-03-05T14:09:47.486Z,7.95
2023-03-05T14:12:31.304Z,8.93
2023-03-05T14:15:08.431Z,8.87
2023-03-05T14:17:44.418Z,9.05
2023-03-05T14:20:32.305Z,8.80
2023-03-05T14:23:27.011Z,8.15
2023-03-05T14:26:30.150Z,7.78
2023-03-05T14:29:17.302Z,7.30
2023-03-05T14:32:01.783Z,7.28
2023-03-05T14:34:41.525Z,6.78
2023-03-05T14:37:27.147Z,6.28
2023-03-05T14:40:06.615Z,5.33
2023-03-05T14:42:58.898Z,5.58
2023-03-05T14:45:37.947Z,4.72
2023-03-05T14:48:14.183Z,4.92
2023-03-05T14:50:56.527Z,6.37
2023-03-05T14:53:40.036Z,5.55
2023-03-05T14:56:28.630Z,5.15
2023-03-05T14:59:03.245Z,4.78
2023-03-05T15:01:36.488Z,3.98
2023-03-05T15:04:09.741Z,3.52
2023-03-05T15:06:45.980Z,4.20
2023-03-05T15:09:21.417Z,3.85
2023-03-05T15:11:54.667Z,3.52
2023-03-05T15:14:28.470Z,15.83
2023-03-05T15:17:02.381Z,4.78
2023-03-05T15:19:35.902Z,4.03
2023-03-05T15:22:12.046Z,3.58
2023-03-05T15:24:45.936Z,3.30
2023-03-05T15:27:19.087Z,3.62
2023-03-05T15:32:27.598Z,3.58
2023-03-05T15:35:01.498Z,2.45
2023-03-05T15:37:35.408Z,3.70
2023-03-05T15:40:10.049Z,3.70
2023-03-05T15:42:43.630Z,5.05
2023-03-05T15:45:17.475Z,5.37
2023-03-05T15:47:54.900Z,6.83
2023-03-05T15:50:28.028Z,6.17
2023-03-05T15:53:00.825Z,6.05
2023-03-05T15:55:33.943Z,3.42
2023-03-05T15:58:07.928Z,2.67
2023-03-05T16:00:42.292Z,2.58
2023-03-05T16:03:15.386Z,1.87
2023-03-05T16:05:48.036Z,1.60
2023-03-05T16:08:21.423Z,2.07
2023-03-05T16:10:55.122Z,2.55
2023-03-05T16:13:30.157Z,2.47
2023-03-05T16:16:06.394Z,2.42
2023-03-05T16:18:42.625Z,3.47
2023-03-05T16:21:15.740Z,3.83
2023-03-05T16:23:50.117Z,4.70
2023-03-05T16:26:23.494Z,13.65
2023-03-05T16:28:57.069Z,5.58
2023-03-05T16:31:35.600Z,6.33
2023-03-05T16:34:08.825Z,6.97
2023-03-05T16:36:44.497Z,6.77
2023-03-05T16:39:18.016Z,7.62
2023-03-05T16:41:52.993Z,8.03
2023-03-05T16:44:25.798Z,8.78
2023-03-05T16:46:59.490Z,8.00
2023-03-05T16:49:33.324Z,9.23
2023-03-05T16:52:18.456Z,9.35
2023-03-05T16:54:42.476Z,8.20
2023-03-05T16:57:15.980Z,8.68
2023-03-05T16:59:48.819Z,8.95
2023-03-05T17:02:21.733Z,8.35
2023-03-05T17:04:56.493Z,7.70
2023-03-05T17:07:29.338Z,9.13
2023-03-05T17:10:03.110Z,9.30
2023-03-05T17:12:36.977Z,9.75
2023-03-05T17:15:12.273Z,9.00
2023-03-05T17:17:45.077Z,10.03
2023-03-05T17:20:20.415Z,11.10
2023-03-05T17:22:53.277Z,11.95
2023-03-05T17:25:26.218Z,10.35
2023-03-05T17:30:33.748Z,15.38
2023-03-05T17:33:08.204Z,15.63
2023-03-05T17:35:41.504Z,15.15
2023-03-05T17:38:15.632Z,15.32
2023-03-05T17:40:49.333Z,14.05
2023-03-05T17:43:22.218Z,13.72
2023-03-05T17:45:56.639Z,11.83
2023-03-05T17:48:30.121Z,11.78
2023-03-05T17:51:03.722Z,11.12
2023-03-05T17:53:39.258Z,10.43
2023-03-05T17:56:16.241Z,10.35
2023-03-05T17:58:49.682Z,10.28
2023-03-05T18:01:30.591Z,10.05
2023-03-05T18:04:04.174Z,9.83
2023-03-05T18:06:37.142Z,9.10
2023-03-05T18:09:10.365Z,9.95
2023-03-05T18:11:44.486Z,8.35
2023-03-05T18:14:19.019Z,10.15
2023-03-05T18:16:52.546Z,8.73
2023-03-05T18:19:26.155Z,9.93
2023-03-05T18:21:59.082Z,24.02
2023-03-05T18:24:32.045Z,23.30
2023-03-05T18:27:06.042Z,24.07
2023-03-05T18:29:38.972Z,20.48
2023-03-05T18:32:12.683Z,23.47
2023-03-05T18:34:46.834Z,19.70
2023-03-05T18:37:19.710Z,15.83
2023-03-05T18:39:53.274Z,13.95
2023-03-05T18:42:26.453Z,12.30
2023-03-05T18:45:01.141Z,10.65
2023-03-05T18:47:34.604Z,11.03
2023-03-05T18:50:10.461Z,10.75
2023-03-05T18:52:45.908Z,9.40
2023-03-05T18:55:25.384Z,12.53
2023-03-05T18:57:58.805Z,11.08
2023-03-05T19:03:06.149Z,8.98
2023-03-05T19:05:41.872Z,10.15
2023-03-05T19:08:15.585Z,9.43
2023-03-05T19:10:48.813Z,14.03
2023-03-05T19:13:40.759Z,14.33
2023-03-05T19:16:18.611Z,9.70
2023-03-05T19:19:07.910Z,9.98
2023-03-05T19:21:57.371Z,8.95
2023-03-05T19:24:32.727Z,8.10
2023-03-05T19:27:08.248Z,8.08
2023-03-05T19:29:43.177Z,8.18
2023-03-05T19:32:18.374Z,7.90
2023-03-05T19:34:51.779Z,7.92
2023-03-05T19:37:25.327Z,7.67
2023-03-05T19:39:57.925Z,7.83
2023-03-05T19:42:31.365Z,6.53
2023-03-05T19:45:05.114Z,7.50
2023-03-05T19:47:37.903Z,7.05
2023-03-05T19:50:12.896Z,8.03
2023-03-05T19:52:46.886Z,10.05
2023-03-05T19:55:20.524Z,12.30
2023-03-05T19:57:54.412Z,84.72
2023-03-05T20:00:28.157Z,82.60
2023-03-05T20:03:01.028Z,53.05
2023-03-05T20:05:34.364Z,44.63
2023-03-05T20:08:07.046Z,50.75
2023-03-05T20:13:14.025Z,59.42
2023-03-05T20:15:46.841Z,58.87
2023-03-05T20:18:20.149Z,57.05
2023-03-05T20:20:59.988Z,43.13
2023-03-05T20:23:32.980Z,45.98
2023-03-05T20:26:07.351Z,37.70
2023-03-05T20:28:40.410Z,39.58
2023-03-05T20:31:13.806Z,41.25
2023-03-05T20:33:46.687Z,35.15
2023-03-05T20:36:20.018Z,35.70
2023-03-05T20:38:52.999Z,33.88
2023-03-05T20:41:27.218Z,33.15
2023-03-05T20:44:00.933Z,32.42
2023-03-05T20:46:39.864Z,36.53
2023-03-05T20:49:12.675Z,26.93
2023-03-05T20:51:47.277Z,26.70
2023-03-05T20:54:20.529Z,24.32
2023-03-05T20:56:53.424Z,26.12
2023-03-05T20:59:26.153Z,24.40
2023-03-05T21:01:59.524Z,24.97
2023-03-05T21:04:33.336Z,23.52
2023-03-05T21:07:06.395Z,24.87
2023-03-05T21:09:39.572Z,25.92
2023-03-05T21:12:13.260Z,22.67
2023-03-05T21:14:47.625Z,25.40
2023-03-05T21:17:20.485Z,24.05
2023-03-05T21:19:53.775Z,23.67
2023-03-05T21:22:26.938Z,23.00
2023-03-05T21:25:05.064Z,23.18
2023-03-05T21:27:38.261Z,20.68
2023-03-05T21:30:13.757Z,21.65
2023-03-05T21:32:47.295Z,23.18
2023-03-05T21:35:23.157Z,22.52
2023-03-05T21:37:56.663Z,22.35
2023-03-05T21:40:30.184Z,20.95
2023-03-05T21:43:04.055Z,20.77
2023-03-05T21:45:37.228Z,20.97
2023-03-05T21:48:11.438Z,20.37
2023-03-05T21:50:46.769Z,22.10
2023-03-05T21:53:22.347Z,21.50
2023-03-05T21:56:05.946Z,21.85
2023-03-05T21:58:40.119Z,22.25
2023-03-05T22:01:14.972Z,23.35
2023-03-05T22:03:48.582Z,23.20
2023-03-05T22:08:54.935Z,22.75
2023-03-05T22:11:28.416Z,23.27
2023-03-05T22:14:01.851Z,24.52
2023-03-05T22:16:34.747Z,29.02
2023-03-05T22:19:09.125Z,34.83
2023-03-05T22:21:42.340Z,43.35
2023-03-05T22:24:16.951Z,44.77
2023-03-05T22:26:49.950Z,46.58
2023-03-05T22:29:23.291Z,40.03
2023-03-05T22:31:57.003Z,32.60
2023-03-05T22:34:29.943Z,31.33
2023-03-05T22:37:03.061Z,27.65
2023-03-05T22:39:36.376Z,21.82
2023-03-05T22:42:10.906Z,17.32
2023-03-05T22:44:44.312Z,20.17
2023-03-05T22:47:18.148Z,17.57
2023-03-05T22:52:23.952Z,18.73
2023-03-05T22:54:56.902Z,16.30
2023-03-05T22:57:30.212Z,16.90
2023-03-05T23:00:03.287Z,23.33
2023-03-05T23:02:37.096Z,26.33
2023-03-05T23:05:11.150Z,24.87
2023-03-05T23:07:45.208Z,27.25
2023-03-05T23:10:28.726Z,27.90
2023-03-05T23:13:02.976Z,29.67
2023-03-05T23:15:39.446Z,29.35
2023-03-05T23:18:14.594Z,25.92
2023-03-05T23:20:47.568Z,24.23
2023-03-05T23:23:20.884Z,25.68
2023-03-05T23:25:54.538Z,25.80
2023-03-05T23:28:27.296Z,25.68
2023-03-05T23:31:01.060Z,22.60
2023-03-05T23:33:34.101Z,26.20
2023-03-05T23:36:07.921Z,22.55
2023-03-05T23:38:41.947Z,21.52
2023-03-05T23:41:14.679Z,19.98
2023-03-05T23:43:48.870Z,19.02
2023-03-05T23:46:21.673Z,18.10
2023-03-05T23:48:54.644Z,19.67
2023-03-05T23:51:27.397Z,23.35
2023-03-05T23:54:00.346Z,26.07
2023-03-05T23:56:33.458Z,30.05
2023-03-05T23:59:06.620Z,30.85
